sensor_id;sensor_type;location;lat;lon;timestamp;temperature;humidity
64869;DHT22;51349;52.424;10.840;2022-07-21T00:00:48;23.20;80.10
64869;DHT22;51349;52.424;10.840;2022-07-21T00:05:48;23.10;81.60
64869;DHT22;51349;52.424;10.840;2022-07-21T00:10:49;22.90;83.80
64869;DHT22;51349;52.424;10.840;2022-07-21T00:15:50;23.10;82.90
64869;DHT22;51349;52.424;10.840;2022-07-21T00:20:51;23.10;80.40
64869;DHT22;51349;52.424;10.840;2022-07-21T00:25:51;23.00;76.50
64869;DHT22;51349;52.424;10.840;2022-07-21T00:30:52;22.90;72.10
64869;DHT22;51349;52.424;10.840;2022-07-21T00:35:53;22.80;71.30
64869;DHT22;51349;52.424;10.840;2022-07-21T00:40:54;22.80;69.40
64869;DHT22;51349;52.424;10.840;2022-07-21T00:45:55;22.70;68.80
64869;DHT22;51349;52.424;10.840;2022-07-21T00:50:55;22.60;68.90
64869;DHT22;51349;52.424;10.840;2022-07-21T00:55:57;22.50;68.80
64869;DHT22;51349;52.424;10.840;2022-07-21T01:00:58;22.40;69.50
64869;DHT22;51349;52.424;10.840;2022-07-21T01:05:59;22.40;70.30
64869;DHT22;51349;52.424;10.840;2022-07-21T01:11:00;22.20;70.80
64869;DHT22;51349;52.424;10.840;2022-07-21T01:16:01;22.20;71.50
64869;DHT22;51349;52.424;10.840;2022-07-21T01:21:03;22.20;72.40
64869;DHT22;51349;52.424;10.840;2022-07-21T01:26:07;22.10;73.20
64869;DHT22;51349;52.424;10.840;2022-07-21T01:31:07;22.10;73.80
64869;DHT22;51349;52.424;10.840;2022-07-21T01:36:08;22.20;74.30
64869;DHT22;51349;52.424;10.840;2022-07-21T01:41:08;22.10;75.60
64869;DHT22;51349;52.424;10.840;2022-07-21T01:46:32;22.10;76.40
64869;DHT22;51349;52.424;10.840;2022-07-21T01:51:33;22.00;77.50
64869;DHT22;51349;52.424;10.840;2022-07-21T01:56:35;21.90;79.10
64869;DHT22;51349;52.424;10.840;2022-07-21T02:01:36;21.90;80.50
64869;DHT22;51349;52.424;10.840;2022-07-21T02:06:36;21.80;82.20
64869;DHT22;51349;52.424;10.840;2022-07-21T02:11:38;21.80;84.10
64869;DHT22;51349;52.424;10.840;2022-07-21T02:16:38;21.70;85.70
64869;DHT22;51349;52.424;10.840;2022-07-21T02:21:39;21.70;86.70
64869;DHT22;51349;52.424;10.840;2022-07-21T02:26:40;21.70;86.90
64869;DHT22;51349;52.424;10.840;2022-07-21T02:31:40;21.70;86.70
64869;DHT22;51349;52.424;10.840;2022-07-21T02:36:41;21.80;86.60
64869;DHT22;51349;52.424;10.840;2022-07-21T02:41:42;21.70;86.80
64869;DHT22;51349;52.424;10.840;2022-07-21T02:46:42;21.80;87.60
64869;DHT22;51349;52.424;10.840;2022-07-21T02:51:43;21.70;88.30
64869;DHT22;51349;52.424;10.840;2022-07-21T02:56:44;21.70;89.10
64869;DHT22;51349;52.424;10.840;2022-07-21T03:01:44;21.70;90.00
64869;DHT22;51349;52.424;10.840;2022-07-21T03:06:45;21.70;90.50
64869;DHT22;51349;52.424;10.840;2022-07-21T03:11:47;21.70;90.80
64869;DHT22;51349;52.424;10.840;2022-07-21T03:16:47;21.70;91.10
64869;DHT22;51349;52.424;10.840;2022-07-21T03:21:48;21.60;91.20
64869;DHT22;51349;52.424;10.840;2022-07-21T03:26:49;21.50;91.70
64869;DHT22;51349;52.424;10.840;2022-07-21T03:31:49;21.50;91.60
64869;DHT22;51349;52.424;10.840;2022-07-21T03:36:50;21.50;90.80
64869;DHT22;51349;52.424;10.840;2022-07-21T03:41:51;21.60;91.00
64869;DHT22;51349;52.424;10.840;2022-07-21T03:46:51;21.50;91.30
64869;DHT22;51349;52.424;10.840;2022-07-21T03:51:52;21.50;90.80
64869;DHT22;51349;52.424;10.840;2022-07-21T03:56:52;21.40;91.40
64869;DHT22;51349;52.424;10.840;2022-07-21T04:01:53;21.50;91.10
64869;DHT22;51349;52.424;10.840;2022-07-21T04:06:54;21.50;91.20
64869;DHT22;51349;52.424;10.840;2022-07-21T04:11:54;21.50;91.30
64869;DHT22;51349;52.424;10.840;2022-07-21T04:16:55;21.60;91.50
64869;DHT22;51349;52.424;10.840;2022-07-21T04:21:55;21.60;91.30
64869;DHT22;51349;52.424;10.840;2022-07-21T04:26:57;21.60;91.70
64869;DHT22;51349;52.424;10.840;2022-07-21T04:31:58;21.60;91.60
64869;DHT22;51349;52.424;10.840;2022-07-21T04:36:59;21.60;91.60
64869;DHT22;51349;52.424;10.840;2022-07-21T04:42:00;21.60;91.80
64869;DHT22;51349;52.424;10.840;2022-07-21T04:47:00;21.60;92.20
64869;DHT22;51349;52.424;10.840;2022-07-21T04:52:02;21.60;92.10
64869;DHT22;51349;52.424;10.840;2022-07-21T04:57:03;21.60;92.40
64869;DHT22;51349;52.424;10.840;2022-07-21T05:02:06;21.60;92.60
64869;DHT22;51349;52.424;10.840;2022-07-21T05:07:07;21.60;92.50
64869;DHT22;51349;52.424;10.840;2022-07-21T05:12:08;21.70;92.70
64869;DHT22;51349;52.424;10.840;2022-07-21T05:17:08;21.60;93.50
64869;DHT22;51349;52.424;10.840;2022-07-21T05:22:09;21.30;96.90
64869;DHT22;51349;52.424;10.840;2022-07-21T05:27:10;21.10;99.70
64869;DHT22;51349;52.424;10.840;2022-07-21T05:32:11;20.90;99.90
64869;DHT22;51349;52.424;10.840;2022-07-21T05:37:11;20.80;99.90
64869;DHT22;51349;52.424;10.840;2022-07-21T05:42:12;20.80;99.90
64869;DHT22;51349;52.424;10.840;2022-07-21T05:47:12;20.60;99.90
64869;DHT22;51349;52.424;10.840;2022-07-21T05:52:13;20.70;99.90
64869;DHT22;51349;52.424;10.840;2022-07-21T05:57:14;20.50;99.90
64869;DHT22;51349;52.424;10.840;2022-07-21T06:02:15;20.40;99.90
64869;DHT22;51349;52.424;10.840;2022-07-21T06:12:28;20.10;99.90
64869;DHT22;51349;52.424;10.840;2022-07-21T06:17:29;20.10;99.90
64869;DHT22;51349;52.424;10.840;2022-07-21T06:22:32;20.20;99.90
64869;DHT22;51349;52.424;10.840;2022-07-21T06:27:33;20.20;99.90
64869;DHT22;51349;52.424;10.840;2022-07-21T06:32:34;20.20;99.90
64869;DHT22;51349;52.424;10.840;2022-07-21T06:37:34;20.20;99.90
64869;DHT22;51349;52.424;10.840;2022-07-21T06:42:38;20.20;99.90
64869;DHT22;51349;52.424;10.840;2022-07-21T06:47:39;20.40;99.90
64869;DHT22;51349;52.424;10.840;2022-07-21T06:52:41;20.90;99.90
64869;DHT22;51349;52.424;10.840;2022-07-21T06:57:42;21.10;99.90
64869;DHT22;51349;52.424;10.840;2022-07-21T07:02:42;21.40;99.90
64869;DHT22;51349;52.424;10.840;2022-07-21T07:07:46;21.90;99.90
64869;DHT22;51349;52.424;10.840;2022-07-21T07:12:50;22.10;99.90
64869;DHT22;51349;52.424;10.840;2022-07-21T07:18:04;22.30;99.90
64869;DHT22;51349;52.424;10.840;2022-07-21T07:23:05;22.50;99.90
64869;DHT22;51349;52.424;10.840;2022-07-21T07:28:05;22.50;99.90
64869;DHT22;51349;52.424;10.840;2022-07-21T07:33:09;22.80;99.90
64869;DHT22;51349;52.424;10.840;2022-07-21T07:38:14;22.50;99.90
64869;DHT22;51349;52.424;10.840;2022-07-21T07:43:17;22.70;99.90
64869;DHT22;51349;52.424;10.840;2022-07-21T07:48:24;23.20;99.90
64869;DHT22;51349;52.424;10.840;2022-07-21T07:53:25;23.50;99.90
64869;DHT22;51349;52.424;10.840;2022-07-21T07:58:27;23.90;99.90
64869;DHT22;51349;52.424;10.840;2022-07-21T08:03:28;23.60;99.90
64869;DHT22;51349;52.424;10.840;2022-07-21T08:08:30;23.40;99.90
64869;DHT22;51349;52.424;10.840;2022-07-21T08:13:31;24.30;99.90
64869;DHT22;51349;52.424;10.840;2022-07-21T08:18:31;24.30;99.90
64869;DHT22;51349;52.424;10.840;2022-07-21T08:23:32;24.50;99.70
64869;DHT22;51349;52.424;10.840;2022-07-21T08:28:33;24.40;99.30
64869;DHT22;51349;52.424;10.840;2022-07-21T08:33:34;24.50;98.40
64869;DHT22;51349;52.424;10.840;2022-07-21T08:38:34;24.50;98.60
64869;DHT22;51349;52.424;10.840;2022-07-21T08:43:36;25.60;97.40
64869;DHT22;51349;52.424;10.840;2022-07-21T08:48:36;26.30;95.70
64869;DHT22;51349;52.424;10.840;2022-07-21T08:53:37;27.10;95.20
64869;DHT22;51349;52.424;10.840;2022-07-21T08:58:38;27.10;94.70
64869;DHT22;51349;52.424;10.840;2022-07-21T09:03:38;27.30;92.50
64869;DHT22;51349;52.424;10.840;2022-07-21T09:08:46;27.40;92.30
64869;DHT22;51349;52.424;10.840;2022-07-21T09:13:49;27.50;91.70
64869;DHT22;51349;52.424;10.840;2022-07-21T09:18:52;26.90;91.80
64869;DHT22;51349;52.424;10.840;2022-07-21T09:24:29;27.90;90.90
64869;DHT22;51349;52.424;10.840;2022-07-21T09:30:09;27.80;90.10
64869;DHT22;51349;52.424;10.840;2022-07-21T09:35:11;27.10;89.30
64869;DHT22;51349;52.424;10.840;2022-07-21T09:40:16;27.70;88.60
64869;DHT22;51349;52.424;10.840;2022-07-21T09:45:18;27.60;89.20
64869;DHT22;51349;52.424;10.840;2022-07-21T09:50:18;28.00;91.40
64869;DHT22;51349;52.424;10.840;2022-07-21T09:55:19;28.80;90.10
64869;DHT22;51349;52.424;10.840;2022-07-21T10:00:20;28.40;89.20
64869;DHT22;51349;52.424;10.840;2022-07-21T10:05:21;27.10;90.70
64869;DHT22;51349;52.424;10.840;2022-07-21T10:10:22;27.20;91.00
64869;DHT22;51349;52.424;10.840;2022-07-21T10:15:23;27.00;91.50
64869;DHT22;51349;52.424;10.840;2022-07-21T10:20:28;27.40;91.40
64869;DHT22;51349;52.424;10.840;2022-07-21T10:25:30;26.90;91.70
64869;DHT22;51349;52.424;10.840;2022-07-21T10:30:45;26.60;92.50
64869;DHT22;51349;52.424;10.840;2022-07-21T10:35:51;27.30;91.80
64869;DHT22;51349;52.424;10.840;2022-07-21T10:40:52;27.70;90.80
64869;DHT22;51349;52.424;10.840;2022-07-21T10:45:54;26.50;93.00
64869;DHT22;51349;52.424;10.840;2022-07-21T10:50:58;26.80;93.10
64869;DHT22;51349;52.424;10.840;2022-07-21T10:55:59;27.20;92.40
64869;DHT22;51349;52.424;10.840;2022-07-21T11:11:27;26.60;93.20
64869;DHT22;51349;52.424;10.840;2022-07-21T11:21:56;26.10;92.90
64869;DHT22;51349;52.424;10.840;2022-07-21T11:27:11;26.30;93.20
64869;DHT22;51349;52.424;10.840;2022-07-21T11:32:13;26.80;92.20
64869;DHT22;51349;52.424;10.840;2022-07-21T11:37:19;26.50;91.60
64869;DHT22;51349;52.424;10.840;2022-07-21T11:42:27;26.50;90.80
64869;DHT22;51349;52.424;10.840;2022-07-21T11:47:28;27.10;90.50
64869;DHT22;51349;52.424;10.840;2022-07-21T11:52:31;27.20;90.10
64869;DHT22;51349;52.424;10.840;2022-07-21T11:57:32;26.70;90.80
64869;DHT22;51349;52.424;10.840;2022-07-21T12:02:33;27.50;90.60
64869;DHT22;51349;52.424;10.840;2022-07-21T12:07:39;27.10;90.50
64869;DHT22;51349;52.424;10.840;2022-07-21T12:17:47;26.70;88.00
64869;DHT22;51349;52.424;10.840;2022-07-21T12:22:48;27.20;89.30
64869;DHT22;51349;52.424;10.840;2022-07-21T12:27:51;27.70;86.70
64869;DHT22;51349;52.424;10.840;2022-07-21T12:32:51;27.80;86.50
64869;DHT22;51349;52.424;10.840;2022-07-21T12:37:53;27.70;83.00
64869;DHT22;51349;52.424;10.840;2022-07-21T12:43:27;27.70;83.40
64869;DHT22;51349;52.424;10.840;2022-07-21T12:48:29;27.70;83.90
64869;DHT22;51349;52.424;10.840;2022-07-21T12:53:31;27.80;83.60
64869;DHT22;51349;52.424;10.840;2022-07-21T12:58:33;27.30;84.60
64869;DHT22;51349;52.424;10.840;2022-07-21T13:03:34;27.20;85.10
64869;DHT22;51349;52.424;10.840;2022-07-21T13:08:36;27.30;84.10
64869;DHT22;51349;52.424;10.840;2022-07-21T13:13:36;27.80;84.20
64869;DHT22;51349;52.424;10.840;2022-07-21T13:18:37;27.80;84.40
64869;DHT22;51349;52.424;10.840;2022-07-21T13:23:38;27.80;80.40
64869;DHT22;51349;52.424;10.840;2022-07-21T13:28:39;27.80;81.20
64869;DHT22;51349;52.424;10.840;2022-07-21T13:33:40;27.00;80.50
64869;DHT22;51349;52.424;10.840;2022-07-21T13:38:40;26.80;82.30
64869;DHT22;51349;52.424;10.840;2022-07-21T13:43:41;26.60;82.30
64869;DHT22;51349;52.424;10.840;2022-07-21T13:48:42;27.00;82.00
64869;DHT22;51349;52.424;10.840;2022-07-21T13:53:45;27.20;81.00
64869;DHT22;51349;52.424;10.840;2022-07-21T13:58:46;27.20;77.20
64869;DHT22;51349;52.424;10.840;2022-07-21T14:03:47;27.00;76.50
64869;DHT22;51349;52.424;10.840;2022-07-21T14:08:48;26.40;78.90
64869;DHT22;51349;52.424;10.840;2022-07-21T14:13:49;26.60;80.40
64869;DHT22;51349;52.424;10.840;2022-07-21T14:18:50;26.70;81.40
64869;DHT22;51349;52.424;10.840;2022-07-21T14:23:52;27.00;80.80
64869;DHT22;51349;52.424;10.840;2022-07-21T14:29:12;26.50;78.80
64869;DHT22;51349;52.424;10.840;2022-07-21T14:34:13;26.10;79.70
64869;DHT22;51349;52.424;10.840;2022-07-21T14:39:14;26.20;79.20
64869;DHT22;51349;52.424;10.840;2022-07-21T14:44:16;26.10;77.40
64869;DHT22;51349;52.424;10.840;2022-07-21T14:49:17;26.40;77.60
64869;DHT22;51349;52.424;10.840;2022-07-21T14:54:18;26.50;77.40
64869;DHT22;51349;52.424;10.840;2022-07-21T14:59:19;26.60;78.30
64869;DHT22;51349;52.424;10.840;2022-07-21T15:04:19;26.40;77.50
64869;DHT22;51349;52.424;10.840;2022-07-21T15:09:22;26.60;76.70
64869;DHT22;51349;52.424;10.840;2022-07-21T15:14:22;26.90;78.40
64869;DHT22;51349;52.424;10.840;2022-07-21T15:19:23;26.60;78.70
64869;DHT22;51349;52.424;10.840;2022-07-21T15:24:24;26.40;79.40
64869;DHT22;51349;52.424;10.840;2022-07-21T15:29:24;26.30;79.00
64869;DHT22;51349;52.424;10.840;2022-07-21T15:34:25;26.70;77.90
64869;DHT22;51349;52.424;10.840;2022-07-21T15:39:25;27.10;78.20
64869;DHT22;51349;52.424;10.840;2022-07-21T15:44:26;27.10;79.00
64869;DHT22;51349;52.424;10.840;2022-07-21T15:49:27;26.30;79.50
64869;DHT22;51349;52.424;10.840;2022-07-21T15:54:47;26.20;80.60
64869;DHT22;51349;52.424;10.840;2022-07-21T15:59:48;26.50;79.20
64869;DHT22;51349;52.424;10.840;2022-07-21T16:04:50;26.90;80.50
64869;DHT22;51349;52.424;10.840;2022-07-21T16:09:50;26.60;78.30
64869;DHT22;51349;52.424;10.840;2022-07-21T16:14:51;26.20;79.80
64869;DHT22;51349;52.424;10.840;2022-07-21T16:19:52;26.40;80.50
64869;DHT22;51349;52.424;10.840;2022-07-21T16:24:52;26.60;80.60
64869;DHT22;51349;52.424;10.840;2022-07-21T16:29:53;26.80;81.30
64869;DHT22;51349;52.424;10.840;2022-07-21T16:34:53;26.20;82.80
64869;DHT22;51349;52.424;10.840;2022-07-21T16:39:54;25.80;84.30
64869;DHT22;51349;52.424;10.840;2022-07-21T16:44:55;25.30;83.90
64869;DHT22;51349;52.424;10.840;2022-07-21T16:49:55;25.10;84.70
64869;DHT22;51349;52.424;10.840;2022-07-21T16:54:56;24.80;84.70
64869;DHT22;51349;52.424;10.840;2022-07-21T16:59:57;24.60;85.80
64869;DHT22;51349;52.424;10.840;2022-07-21T17:04:57;24.50;85.50
64869;DHT22;51349;52.424;10.840;2022-07-21T17:09:58;24.40;85.30
64869;DHT22;51349;52.424;10.840;2022-07-21T17:14:58;24.40;85.60
64869;DHT22;51349;52.424;10.840;2022-07-21T17:19:59;24.30;86.10
64869;DHT22;51349;52.424;10.840;2022-07-21T17:25:00;24.50;87.10
64869;DHT22;51349;52.424;10.840;2022-07-21T17:30:00;24.50;87.30
64869;DHT22;51349;52.424;10.840;2022-07-21T17:35:01;24.70;87.00
64869;DHT22;51349;52.424;10.840;2022-07-21T17:40:02;24.80;86.60
64869;DHT22;51349;52.424;10.840;2022-07-21T17:45:04;24.80;86.90
64869;DHT22;51349;52.424;10.840;2022-07-21T17:50:05;24.70;88.00
64869;DHT22;51349;52.424;10.840;2022-07-21T17:55:06;24.80;88.10
64869;DHT22;51349;52.424;10.840;2022-07-21T18:00:08;24.80;87.90
64869;DHT22;51349;52.424;10.840;2022-07-21T18:05:10;24.50;89.10
64869;DHT22;51349;52.424;10.840;2022-07-21T18:10:10;24.50;89.80
64869;DHT22;51349;52.424;10.840;2022-07-21T18:15:14;24.30;90.10
64869;DHT22;51349;52.424;10.840;2022-07-21T18:20:15;24.20;89.50
64869;DHT22;51349;52.424;10.840;2022-07-21T18:25:16;24.10;90.20
64869;DHT22;51349;52.424;10.840;2022-07-21T18:30:17;24.00;90.40
64869;DHT22;51349;52.424;10.840;2022-07-21T18:35:19;23.90;90.60
64869;DHT22;51349;52.424;10.840;2022-07-21T18:40:19;23.90;91.10
64869;DHT22;51349;52.424;10.840;2022-07-21T18:45:20;23.80;91.70
64869;DHT22;51349;52.424;10.840;2022-07-21T18:50:21;23.60;92.00
64869;DHT22;51349;52.424;10.840;2022-07-21T18:55:22;23.50;92.60
64869;DHT22;51349;52.424;10.840;2022-07-21T19:00:23;23.40;93.10
64869;DHT22;51349;52.424;10.840;2022-07-21T19:05:24;23.30;93.40
64869;DHT22;51349;52.424;10.840;2022-07-21T19:10:24;23.20;93.80
64869;DHT22;51349;52.424;10.840;2022-07-21T19:15:25;23.20;94.00
64869;DHT22;51349;52.424;10.840;2022-07-21T19:20:26;23.10;93.80
64869;DHT22;51349;52.424;10.840;2022-07-21T19:25:26;22.90;93.80
64869;DHT22;51349;52.424;10.840;2022-07-21T19:30:27;22.90;93.40
64869;DHT22;51349;52.424;10.840;2022-07-21T19:35:28;22.70;93.30
64869;DHT22;51349;52.424;10.840;2022-07-21T19:40:29;22.70;93.40
64869;DHT22;51349;52.424;10.840;2022-07-21T19:45:30;22.70;93.50
64869;DHT22;51349;52.424;10.840;2022-07-21T19:50:31;22.60;93.70
64869;DHT22;51349;52.424;10.840;2022-07-21T19:55:32;22.50;94.60
64869;DHT22;51349;52.424;10.840;2022-07-21T20:00:33;22.40;94.40
64869;DHT22;51349;52.424;10.840;2022-07-21T20:05:35;22.30;94.40
64869;DHT22;51349;52.424;10.840;2022-07-21T20:10:36;22.20;94.50
64869;DHT22;51349;52.424;10.840;2022-07-21T20:15:37;22.10;94.60
64869;DHT22;51349;52.424;10.840;2022-07-21T20:20:38;22.00;95.00
64869;DHT22;51349;52.424;10.840;2022-07-21T20:25:39;21.80;95.50
64869;DHT22;51349;52.424;10.840;2022-07-21T20:30:40;21.80;95.90
64869;DHT22;51349;52.424;10.840;2022-07-21T20:35:40;21.60;97.00
64869;DHT22;51349;52.424;10.840;2022-07-21T20:40:41;21.30;98.50
64869;DHT22;51349;52.424;10.840;2022-07-21T20:45:42;21.10;99.50
64869;DHT22;51349;52.424;10.840;2022-07-21T20:50:43;20.90;99.90
64869;DHT22;51349;52.424;10.840;2022-07-21T20:55:44;20.70;99.90
64869;DHT22;51349;52.424;10.840;2022-07-21T21:00:45;20.70;99.90
64869;DHT22;51349;52.424;10.840;2022-07-21T21:05:45;20.50;99.90
64869;DHT22;51349;52.424;10.840;2022-07-21T21:10:46;20.40;99.90
64869;DHT22;51349;52.424;10.840;2022-07-21T21:15:47;20.30;99.90
64869;DHT22;51349;52.424;10.840;2022-07-21T21:20:48;20.30;99.90
64869;DHT22;51349;52.424;10.840;2022-07-21T21:25:49;20.10;99.90
64869;DHT22;51349;52.424;10.840;2022-07-21T21:30:50;20.10;99.90
64869;DHT22;51349;52.424;10.840;2022-07-21T21:35:51;20.00;99.90
64869;DHT22;51349;52.424;10.840;2022-07-21T21:40:52;19.90;99.90
64869;DHT22;51349;52.424;10.840;2022-07-21T21:45:52;19.90;99.90
64869;DHT22;51349;52.424;10.840;2022-07-21T21:50:53;19.80;99.90
64869;DHT22;51349;52.424;10.840;2022-07-21T21:55:54;19.60;99.90
64869;DHT22;51349;52.424;10.840;2022-07-21T22:00:54;19.60;99.90
64869;DHT22;51349;52.424;10.840;2022-07-21T22:05:55;19.60;99.90
64869;DHT22;51349;52.424;10.840;2022-07-21T22:10:56;19.50;99.90
64869;DHT22;51349;52.424;10.840;2022-07-21T22:15:56;19.40;99.90
64869;DHT22;51349;52.424;10.840;2022-07-21T22:20:57;19.30;99.90
64869;DHT22;51349;52.424;10.840;2022-07-21T22:25:57;19.30;99.90
64869;DHT22;51349;52.424;10.840;2022-07-21T22:30:58;19.20;99.90
64869;DHT22;51349;52.424;10.840;2022-07-21T22:35:59;19.10;99.90
64869;DHT22;51349;52.424;10.840;2022-07-21T22:41:00;19.10;99.90
64869;DHT22;51349;52.424;10.840;2022-07-21T22:46:00;19.10;99.90
64869;DHT22;51349;52.424;10.840;2022-07-21T22:51:03;19.00;99.90
64869;DHT22;51349;52.424;10.840;2022-07-21T22:56:05;18.90;99.90
64869;DHT22;51349;52.424;10.840;2022-07-21T23:01:05;18.90;99.90
64869;DHT22;51349;52.424;10.840;2022-07-21T23:06:06;18.80;99.90
64869;DHT22;51349;52.424;10.840;2022-07-21T23:11:07;18.80;99.90
64869;DHT22;51349;52.424;10.840;2022-07-21T23:16:08;18.70;99.90
64869;DHT22;51349;52.424;10.840;2022-07-21T23:21:08;18.80;99.90
64869;DHT22;51349;52.424;10.840;2022-07-21T23:26:09;18.70;99.90
64869;DHT22;51349;52.424;10.840;2022-07-21T23:31:10;18.60;99.90
64869;DHT22;51349;52.424;10.840;2022-07-21T23:36:10;18.60;99.90
64869;DHT22;51349;52.424;10.840;2022-07-21T23:41:11;18.60;99.90
64869;DHT22;51349;52.424;10.840;2022-07-21T23:46:11;18.50;99.90
64869;DHT22;51349;52.424;10.840;2022-07-21T23:51:12;18.40;99.90
64869;DHT22;51349;52.424;10.840;2022-07-21T23:56:13;18.40;99.90
